createdAt,value
2019-03-08T00:01:18.450Z,30.76
2019-03-08T00:03:45.414Z,30.72
2019-03-08T00:06:12.727Z,30.61
2019-03-08T00:08:39.650Z,30.53
2019-03-08T00:11:06.625Z,30.46
2019-03-08T00:13:33.573Z,30.41
2019-03-08T00:16:00.874Z,30.35
2019-03-08T00:18:27.850Z,30.31
2019-03-08T00:20:54.786Z,30.27
2019-03-08T00:23:21.741Z,30.24
2019-03-08T00:25:49.699Z,30.28
2019-03-08T00:28:16.995Z,30.25
2019-03-08T00:30:44.233Z,30.24
2019-03-08T00:33:11.188Z,30.19
2019-03-08T00:35:38.173Z,30.17
2019-03-08T00:38:05.119Z,30.13
2019-03-08T00:40:32.433Z,30.13
2019-03-08T00:43:00.089Z,30.18
2019-03-08T00:45:27.045Z,30.22
2019-03-08T00:47:53.983Z,30.23
2019-03-08T00:50:20.892Z,30.25
2019-03-08T00:52:48.184Z,30.29
2019-03-08T00:55:15.164Z,30.31
2019-03-08T00:57:42.691Z,30.30
2019-03-08T01:00:09.810Z,30.26
2019-03-08T01:02:36.679Z,30.27
2019-03-08T01:05:04.046Z,30.29
2019-03-08T01:07:31.293Z,30.33
2019-03-08T01:09:58.554Z,30.35
2019-03-08T01:12:25.796Z,30.45
2019-03-08T01:14:52.742Z,30.54
2019-03-08T01:17:20.308Z,30.68
2019-03-08T01:19:47.277Z,30.78
2019-03-08T01:22:14.241Z,30.83
2019-03-08T01:24:41.556Z,30.92
2019-03-08T01:27:08.796Z,30.99
2019-03-08T01:29:36.068Z,31.07
2019-03-08T01:32:03.043Z,31.20
2019-03-08T01:34:29.993Z,31.29
2019-03-08T01:36:56.973Z,31.39
2019-03-08T01:39:23.906Z,31.46
2019-03-08T01:41:50.845Z,31.42
2019-03-08T01:44:18.042Z,31.37
2019-03-08T01:46:44.998Z,31.30
2019-03-08T01:49:11.974Z,31.32
2019-03-08T01:51:38.932Z,31.29
2019-03-08T01:54:05.869Z,31.26
2019-03-08T01:56:32.819Z,31.26
2019-03-08T01:58:59.798Z,31.24
2019-03-08T02:01:26.776Z,31.21
2019-03-08T02:03:53.722Z,31.16
2019-03-08T02:06:20.688Z,31.13
2019-03-08T02:08:48.016Z,31.06
2019-03-08T02:11:15.000Z,31.01
2019-03-08T02:13:41.964Z,30.94
2019-03-08T02:16:09.270Z,30.82
2019-03-08T02:18:36.212Z,30.75
2019-03-08T02:21:06.811Z,30.73
2019-03-08T02:23:31.742Z,30.68
2019-03-08T02:25:58.717Z,30.59
2019-03-08T02:28:25.661Z,30.53
2019-03-08T02:30:52.863Z,30.47
2019-03-08T02:33:19.817Z,30.32
2019-03-08T02:35:46.766Z,30.17
2019-03-08T02:38:14.023Z,30.11
2019-03-08T02:40:41.316Z,30.01
2019-03-08T02:43:08.629Z,29.93
2019-03-08T02:45:35.500Z,29.83
2019-03-08T02:48:02.930Z,29.73
2019-03-08T02:50:30.286Z,29.65
2019-03-08T02:52:57.272Z,29.64
2019-03-08T02:55:24.584Z,29.64
2019-03-08T02:57:52.129Z,29.56
2019-03-08T03:00:19.389Z,29.55
2019-03-08T03:02:47.425Z,29.52
2019-03-08T03:05:14.470Z,29.52
2019-03-08T03:07:42.420Z,29.54
2019-03-08T03:10:09.427Z,29.50
2019-03-08T03:12:36.625Z,29.45
2019-03-08T03:15:03.555Z,29.40
2019-03-08T03:17:30.497Z,29.43
2019-03-08T03:19:57.752Z,29.49
2019-03-08T03:22:24.712Z,29.51
2019-03-08T03:24:51.652Z,29.49
2019-03-08T03:27:18.610Z,29.46
2019-03-08T03:29:45.886Z,29.49
2019-03-08T03:32:13.482Z,29.50
2019-03-08T03:34:40.434Z,29.51
2019-03-08T03:37:07.682Z,29.53
2019-03-08T03:39:34.613Z,29.47
2019-03-08T03:42:01.588Z,29.54
2019-03-08T03:44:28.552Z,29.60
2019-03-08T03:46:55.965Z,29.68
2019-03-08T03:49:22.958Z,29.73
2019-03-08T03:51:49.913Z,29.75
2019-03-08T03:54:18.143Z,29.78
2019-03-08T03:56:45.108Z,29.87
2019-03-08T03:59:12.353Z,29.93
2019-03-08T04:01:39.319Z,29.93
2019-03-08T04:06:38.905Z,29.88
2019-03-08T04:09:05.847Z,29.97
2019-03-08T04:11:32.797Z,29.98
2019-03-08T04:13:59.750Z,29.92
2019-03-08T04:16:27.012Z,29.96
2019-03-08T04:18:54.883Z,29.97
2019-03-08T04:21:21.825Z,29.95
2019-03-08T04:23:49.179Z,29.88
2019-03-08T04:26:16.125Z,29.83
2019-03-08T04:28:43.111Z,29.78
2019-03-08T04:31:10.421Z,29.79
2019-03-08T04:33:38.449Z,29.73
2019-03-08T04:36:06.877Z,29.71
2019-03-08T04:38:33.797Z,29.65
2019-03-08T04:41:01.326Z,29.68
2019-03-08T04:43:28.315Z,29.66
2019-03-08T04:45:55.247Z,29.63
2019-03-08T04:48:22.509Z,29.65
2019-03-08T04:50:49.762Z,29.59
2019-03-08T04:53:16.784Z,29.53
2019-03-08T04:55:44.072Z,29.52
2019-03-08T04:58:11.041Z,29.49
2019-03-08T05:00:38.033Z,29.43
2019-03-08T05:03:05.324Z,29.34
2019-03-08T05:05:32.280Z,29.31
2019-03-08T05:07:59.414Z,29.31
2019-03-08T05:10:26.772Z,29.31
2019-03-08T05:12:54.179Z,29.41
2019-03-08T05:15:25.183Z,29.47
2019-03-08T05:17:52.660Z,29.52
2019-03-08T05:20:22.677Z,29.57
2019-03-08T05:22:49.601Z,29.57
2019-03-08T05:25:16.646Z,29.64
2019-03-08T05:27:43.769Z,30.16
2019-03-08T05:30:10.846Z,30.41
2019-03-08T05:32:38.223Z,30.55
2019-03-08T05:35:05.168Z,30.46
2019-03-08T05:37:32.174Z,30.35
2019-03-08T05:39:59.448Z,30.49
2019-03-08T05:42:26.812Z,30.39
2019-03-08T05:44:54.186Z,30.45
2019-03-08T05:47:21.135Z,30.35
2019-03-08T05:49:48.083Z,30.48
2019-03-08T05:52:15.060Z,30.56
2019-03-08T05:54:42.350Z,30.55
2019-03-08T05:57:10.727Z,30.42
2019-03-08T05:59:37.935Z,30.21
2019-03-08T06:02:05.339Z,30.21
2019-03-08T06:04:33.926Z,30.25
2019-03-08T06:07:00.890Z,30.22
2019-03-08T06:09:27.893Z,30.23
2019-03-08T06:11:55.699Z,30.16
2019-03-08T06:14:22.692Z,30.09
2019-03-08T06:16:49.841Z,29.99
2019-03-08T06:19:16.822Z,29.80
2019-03-08T06:21:43.778Z,29.65
2019-03-08T06:24:10.742Z,29.71
2019-03-08T06:26:37.719Z,29.78
2019-03-08T06:29:04.662Z,29.66
2019-03-08T06:31:31.936Z,29.62
2019-03-08T06:33:59.270Z,29.64
2019-03-08T06:36:26.666Z,29.68
2019-03-08T06:38:53.638Z,29.68
2019-03-08T06:41:20.590Z,29.61
2019-03-08T06:43:47.567Z,29.49
2019-03-08T06:46:14.532Z,29.35
2019-03-08T06:48:42.238Z,29.18
2019-03-08T06:51:09.881Z,29.13
2019-03-08T06:53:36.834Z,28.94
2019-03-08T06:56:03.829Z,28.78
2019-03-08T06:58:30.817Z,28.72
2019-03-08T07:00:58.311Z,28.46
2019-03-08T07:03:25.362Z,28.39
2019-03-08T07:05:52.340Z,28.36
2019-03-08T07:08:19.473Z,28.25
2019-03-08T07:10:46.774Z,28.16
2019-03-08T07:13:14.073Z,28.05
2019-03-08T07:15:41.480Z,27.76
2019-03-08T07:18:12.612Z,27.50
2019-03-08T07:20:37.357Z,27.48
2019-03-08T07:23:04.497Z,27.45
2019-03-08T07:25:32.197Z,27.56
2019-03-08T07:27:59.138Z,27.62
2019-03-08T07:30:26.449Z,27.75
2019-03-08T07:32:53.392Z,27.84
2019-03-08T07:35:21.994Z,27.85
2019-03-08T07:37:49.322Z,27.80
2019-03-08T07:40:16.285Z,27.57
2019-03-08T07:42:45.078Z,27.44
2019-03-08T07:45:13.437Z,27.42
2019-03-08T07:47:40.377Z,27.38
2019-03-08T07:50:07.359Z,27.54
2019-03-08T07:52:34.353Z,27.57
2019-03-08T07:55:01.338Z,27.66
2019-03-08T07:57:28.657Z,27.64
2019-03-08T07:59:55.914Z,27.62
2019-03-08T08:02:23.282Z,27.65
2019-03-08T08:04:50.269Z,27.60
2019-03-08T08:07:17.589Z,27.36
2019-03-08T08:09:58.521Z,27.32
2019-03-08T08:12:27.625Z,27.29
2019-03-08T08:14:54.565Z,27.46
2019-03-08T08:17:21.527Z,27.69
2019-03-08T08:19:48.520Z,27.78
2019-03-08T08:22:15.487Z,27.78
2019-03-08T08:24:42.420Z,27.78
2019-03-08T08:27:09.739Z,27.95
2019-03-08T08:29:36.747Z,27.98
2019-03-08T08:32:03.851Z,28.04
2019-03-08T08:34:30.799Z,28.04
2019-03-08T08:36:58.184Z,28.11
2019-03-08T08:39:25.450Z,28.06
2019-03-08T08:41:52.521Z,28.33
2019-03-08T08:44:19.672Z,29.13
2019-03-08T08:46:46.643Z,29.27
2019-03-08T08:49:13.604Z,28.87
2019-03-08T08:51:40.543Z,28.83
2019-03-08T08:54:07.505Z,28.65
2019-03-08T08:56:34.503Z,28.69
2019-03-08T08:59:01.770Z,28.88
2019-03-08T09:01:29.022Z,28.91
2019-03-08T09:03:55.987Z,28.65
2019-03-08T09:06:22.947Z,28.65
2019-03-08T09:08:49.899Z,28.54
2019-03-08T09:11:16.867Z,28.45
2019-03-08T09:13:45.303Z,28.34
2019-03-08T09:16:12.247Z,28.39
2019-03-08T09:18:39.512Z,28.47
2019-03-08T09:21:06.862Z,28.45
2019-03-08T09:23:33.821Z,28.41
2019-03-08T09:26:00.783Z,28.39
2019-03-08T09:28:27.760Z,28.39
2019-03-08T09:30:55.018Z,28.33
2019-03-08T09:33:22.027Z,28.38
2019-03-08T09:35:49.322Z,28.48
2019-03-08T09:38:17.540Z,28.45
2019-03-08T09:40:45.828Z,28.63
2019-03-08T09:43:13.126Z,28.68
2019-03-08T09:45:40.030Z,28.67
2019-03-08T09:48:07.176Z,28.55
2019-03-08T09:50:34.605Z,28.55
2019-03-08T09:53:02.551Z,28.55
2019-03-08T09:55:29.931Z,28.52
2019-03-08T09:57:56.882Z,28.57
2019-03-08T10:00:24.234Z,28.54
2019-03-08T10:02:51.582Z,28.56
2019-03-08T10:05:18.537Z,28.60
2019-03-08T10:07:46.096Z,28.61
2019-03-08T10:10:13.075Z,28.62
2019-03-08T10:12:40.034Z,28.70
2019-03-08T10:15:06.988Z,28.66
2019-03-08T10:17:33.955Z,28.67
2019-03-08T10:20:00.902Z,28.72
2019-03-08T10:22:27.846Z,28.87
2019-03-08T10:24:55.176Z,28.94
2019-03-08T10:27:22.474Z,28.84
2019-03-08T10:29:49.736Z,28.96
2019-03-08T10:32:16.882Z,28.88
2019-03-08T10:34:44.127Z,28.79
2019-03-08T10:37:11.101Z,28.73
2019-03-08T10:39:38.611Z,28.69
2019-03-08T10:42:05.853Z,28.67
2019-03-08T10:44:32.801Z,28.67
2019-03-08T10:46:59.953Z,28.72
2019-03-08T10:49:27.116Z,28.77
2019-03-08T10:51:54.105Z,28.83
2019-03-08T10:54:22.160Z,28.79
2019-03-08T10:56:49.126Z,28.75
2019-03-08T10:59:16.205Z,28.67
2019-03-08T11:01:43.241Z,28.73
2019-03-08T11:04:10.193Z,28.79
2019-03-08T11:06:37.188Z,28.79
2019-03-08T11:09:04.535Z,28.68
2019-03-08T11:11:33.111Z,28.81
2019-03-08T11:14:00.115Z,28.88
2019-03-08T11:16:27.079Z,28.85
2019-03-08T11:18:54.346Z,28.81
2019-03-08T11:21:21.225Z,28.89
2019-03-08T11:23:48.175Z,28.96
2019-03-08T11:26:15.187Z,29.03
2019-03-08T11:28:42.467Z,29.20
2019-03-08T11:31:11.809Z,29.58
2019-03-08T11:33:38.777Z,30.22
2019-03-08T11:36:07.314Z,30.50
2019-03-08T11:38:34.849Z,30.62
2019-03-08T11:41:01.857Z,30.67
2019-03-08T11:43:28.902Z,30.81
2019-03-08T11:45:56.432Z,30.96
2019-03-08T11:48:25.215Z,31.02
2019-03-08T11:50:52.158Z,31.08
2019-03-08T11:53:19.224Z,31.13
2019-03-08T11:55:46.259Z,31.23
2019-03-08T11:58:13.181Z,31.32
2019-03-08T12:00:40.422Z,31.26
2019-03-08T12:03:08.076Z,31.54
2019-03-08T12:05:35.109Z,31.62
2019-03-08T12:08:02.072Z,31.68
2019-03-08T12:10:29.158Z,31.69
2019-03-08T12:12:57.084Z,31.76
2019-03-08T12:15:24.373Z,31.83
2019-03-08T12:17:51.336Z,31.83
2019-03-08T12:20:18.509Z,31.92
2019-03-08T12:22:45.806Z,31.99
2019-03-08T12:25:13.162Z,32.13
2019-03-08T12:27:40.605Z,32.18
2019-03-08T12:30:07.872Z,32.29
2019-03-08T12:32:34.870Z,32.30
2019-03-08T12:35:01.831Z,32.43
2019-03-08T12:37:29.108Z,32.54
2019-03-08T12:39:57.491Z,32.66
2019-03-08T12:42:24.763Z,32.85
2019-03-08T12:44:51.686Z,33.22
2019-03-08T12:47:18.707Z,33.57
2019-03-08T12:49:46.000Z,33.70
2019-03-08T12:52:13.649Z,33.94
2019-03-08T12:54:40.629Z,34.13
2019-03-08T12:57:07.897Z,34.18
2019-03-08T12:59:34.957Z,34.12
2019-03-08T13:02:02.269Z,34.29
2019-03-08T13:04:30.653Z,34.28
2019-03-08T13:06:57.614Z,34.20
2019-03-08T13:09:24.962Z,34.10
2019-03-08T13:11:52.324Z,33.90
2019-03-08T13:14:19.290Z,33.67
2019-03-08T13:16:46.634Z,33.70
2019-03-08T13:19:13.599Z,33.66
2019-03-08T13:21:40.505Z,33.68
2019-03-08T13:24:07.761Z,33.33
2019-03-08T13:26:35.790Z,33.25
2019-03-08T13:29:03.722Z,33.10
2019-03-08T13:31:31.067Z,32.68
2019-03-08T13:33:58.012Z,32.54
2019-03-08T13:36:25.000Z,32.46
2019-03-08T13:38:52.295Z,32.37
2019-03-08T13:41:19.559Z,32.40
2019-03-08T13:43:46.896Z,32.30
2019-03-08T13:46:13.907Z,32.27
2019-03-08T13:48:40.976Z,32.31
2019-03-08T13:51:07.889Z,32.41
2019-03-08T13:53:34.852Z,32.58
2019-03-08T13:56:02.239Z,32.81
2019-03-08T13:58:29.531Z,32.68
2019-03-08T14:00:56.504Z,32.60
2019-03-08T14:03:23.900Z,32.62
2019-03-08T14:05:51.130Z,32.66
2019-03-08T14:08:18.410Z,32.63
2019-03-08T14:10:45.415Z,32.46
2019-03-08T14:13:12.357Z,32.46
2019-03-08T14:15:40.468Z,32.42
2019-03-08T14:18:07.439Z,32.42
2019-03-08T14:20:34.431Z,32.42
2019-03-08T14:23:01.859Z,32.31
2019-03-08T14:25:28.858Z,32.17
2019-03-08T14:27:57.042Z,32.07
2019-03-08T14:30:26.761Z,31.93
2019-03-08T14:32:53.348Z,31.89
2019-03-08T14:35:20.295Z,31.82
2019-03-08T14:37:47.582Z,31.75
2019-03-08T14:40:17.135Z,31.79
2019-03-08T14:42:43.582Z,31.73
2019-03-08T14:45:10.556Z,31.58
2019-03-08T14:47:37.862Z,31.62
2019-03-08T14:50:06.898Z,31.63
2019-03-08T14:52:33.941Z,31.57
2019-03-08T14:55:01.234Z,31.52
2019-03-08T14:57:29.410Z,31.52
2019-03-08T14:59:57.054Z,31.57
2019-03-08T15:02:24.099Z,31.60
2019-03-08T15:04:51.351Z,31.58
2019-03-08T15:07:18.226Z,31.54
2019-03-08T15:09:45.601Z,31.59
2019-03-08T15:12:16.511Z,31.55
2019-03-08T15:14:41.171Z,31.71
2019-03-08T15:17:09.379Z,31.83
2019-03-08T15:19:40.302Z,32.06
2019-03-08T15:22:05.638Z,32.57
2019-03-08T15:24:38.256Z,33.57
2019-03-08T15:27:02.334Z,34.61
2019-03-08T15:29:31.602Z,35.54
2019-03-08T15:31:58.921Z,36.35
2019-03-08T15:34:25.902Z,36.85
2019-03-08T15:36:53.306Z,37.07
2019-03-08T15:39:20.693Z,37.38
2019-03-08T15:41:48.276Z,37.45
2019-03-08T15:44:15.230Z,37.39
2019-03-08T15:46:42.624Z,37.23
2019-03-08T15:49:09.883Z,37.24
2019-03-08T15:51:38.304Z,37.28
2019-03-08T15:54:07.007Z,37.41
2019-03-08T15:56:34.322Z,37.54
2019-03-08T15:59:03.332Z,37.57
2019-03-08T16:01:30.242Z,37.67
2019-03-08T16:03:57.290Z,37.76
2019-03-08T16:06:24.356Z,37.83
2019-03-08T16:08:51.606Z,37.79
2019-03-08T16:11:18.973Z,37.69
2019-03-08T16:13:46.026Z,37.59
2019-03-08T16:16:13.002Z,37.57
2019-03-08T16:18:43.508Z,37.47
2019-03-08T16:21:08.581Z,37.49
2019-03-08T16:23:35.944Z,37.49
2019-03-08T16:26:03.159Z,37.66
2019-03-08T16:28:30.489Z,37.74
2019-03-08T16:30:57.807Z,37.78
2019-03-08T16:33:25.180Z,37.81
2019-03-08T16:35:54.235Z,37.83
2019-03-08T16:38:21.130Z,37.79
2019-03-08T16:40:48.096Z,37.83
2019-03-08T16:43:15.048Z,37.65
2019-03-08T16:45:42.720Z,37.65
2019-03-08T16:48:11.044Z,37.61
2019-03-08T16:50:38.323Z,37.56
2019-03-08T16:53:06.347Z,37.68
2019-03-08T16:55:33.324Z,37.83
2019-03-08T16:58:01.680Z,37.75
2019-03-08T17:00:28.652Z,37.76
2019-03-08T17:02:55.975Z,37.68
2019-03-08T17:05:23.279Z,37.53
2019-03-08T17:07:50.628Z,37.41
2019-03-08T17:10:19.001Z,37.29
2019-03-08T17:12:46.040Z,37.28
2019-03-08T17:15:12.978Z,37.28
2019-03-08T17:17:40.206Z,37.31
2019-03-08T17:20:07.395Z,37.37
2019-03-08T17:22:34.300Z,37.36
2019-03-08T17:25:01.592Z,37.44
2019-03-08T17:27:28.581Z,37.48
2019-03-08T17:29:55.575Z,37.50
2019-03-08T17:32:22.517Z,37.48
2019-03-08T17:34:49.768Z,37.42
2019-03-08T17:37:16.747Z,37.34
2019-03-08T17:39:44.074Z,37.37
2019-03-08T17:42:11.019Z,37.43
2019-03-08T17:44:37.964Z,37.43
2019-03-08T17:47:06.035Z,37.41
2019-03-08T17:49:32.976Z,37.41
2019-03-08T17:52:00.040Z,37.40
2019-03-08T17:54:28.593Z,37.49
2019-03-08T17:56:57.294Z,37.55
2019-03-08T17:59:24.191Z,37.56
2019-03-08T18:01:51.506Z,37.58
2019-03-08T18:04:18.715Z,37.58
2019-03-08T18:06:45.690Z,37.61
2019-03-08T18:09:12.555Z,37.65
2019-03-08T18:11:39.525Z,37.79
2019-03-08T18:14:08.997Z,37.86
2019-03-08T18:16:36.570Z,37.88
2019-03-08T18:19:03.557Z,37.95
2019-03-08T18:21:31.864Z,37.95
2019-03-08T18:23:58.833Z,38.03
2019-03-08T18:26:26.062Z,38.11
2019-03-08T18:28:53.323Z,38.13
2019-03-08T18:31:23.492Z,38.17
2019-03-08T18:33:50.699Z,38.19
2019-03-08T18:36:17.938Z,38.29
2019-03-08T18:38:45.105Z,38.38
2019-03-08T18:41:12.361Z,38.37
2019-03-08T18:43:39.332Z,38.29
2019-03-08T18:46:06.270Z,38.17
2019-03-08T18:48:33.485Z,38.06
2019-03-08T18:51:00.482Z,37.98
2019-03-08T18:53:27.728Z,37.90
2019-03-08T18:55:54.704Z,37.85
2019-03-08T18:58:21.659Z,37.91
2019-03-08T19:00:49.682Z,37.91
2019-03-08T19:03:16.641Z,37.87
2019-03-08T19:05:43.605Z,37.97
2019-03-08T19:08:10.937Z,38.08
2019-03-08T19:10:37.894Z,38.21
2019-03-08T19:13:04.837Z,38.30
2019-03-08T19:15:31.803Z,38.42
2019-03-08T19:17:59.084Z,38.58
2019-03-08T19:20:25.989Z,38.66
2019-03-08T19:22:53.154Z,38.76
2019-03-08T19:25:21.090Z,38.65
2019-03-08T19:27:47.975Z,38.27
2019-03-08T19:30:18.499Z,38.06
2019-03-08T19:32:45.526Z,38.01
2019-03-08T19:35:12.845Z,38.01
2019-03-08T19:37:41.469Z,37.99
2019-03-08T19:40:08.784Z,37.97
2019-03-08T19:42:35.759Z,37.92
2019-03-08T19:45:02.982Z,37.75
2019-03-08T19:47:31.865Z,37.44
2019-03-08T19:50:00.327Z,37.18
2019-03-08T19:52:27.597Z,37.02
2019-03-08T19:54:55.022Z,36.96
2019-03-08T19:59:56.064Z,36.75
2019-03-08T20:02:24.667Z,36.70
2019-03-08T20:04:52.624Z,36.64
2019-03-08T20:07:20.027Z,36.58
2019-03-08T20:09:46.977Z,36.56
2019-03-08T20:12:14.310Z,36.54
2019-03-08T20:14:41.256Z,36.54
2019-03-08T20:17:08.228Z,36.51
2019-03-08T20:19:35.263Z,36.56
2019-03-08T20:22:02.253Z,36.57
2019-03-08T20:24:29.576Z,36.59
2019-03-08T20:26:56.673Z,36.58
2019-03-08T20:29:23.728Z,36.54
2019-03-08T20:31:50.797Z,36.53
2019-03-08T20:34:17.898Z,36.50
2019-03-08T20:36:45.192Z,36.50
2019-03-08T20:39:12.218Z,36.47
2019-03-08T20:41:39.515Z,36.46
2019-03-08T20:44:06.691Z,36.42
2019-03-08T20:46:35.170Z,36.42
2019-03-08T20:49:02.814Z,36.42
2019-03-08T20:51:29.848Z,36.45
2019-03-08T20:53:56.743Z,36.47
2019-03-08T20:56:24.055Z,36.50
2019-03-08T20:58:51.015Z,36.44
2019-03-08T21:01:18.357Z,36.35
2019-03-08T21:03:45.476Z,36.32
2019-03-08T21:06:12.373Z,36.30
2019-03-08T21:08:39.313Z,36.20
2019-03-08T21:11:06.440Z,36.16
2019-03-08T21:13:33.415Z,36.11
2019-03-08T21:16:01.377Z,36.11
2019-03-08T21:18:28.507Z,36.11
2019-03-08T21:20:55.470Z,36.11
2019-03-08T21:23:22.706Z,36.09
2019-03-08T21:25:51.081Z,36.09
2019-03-08T21:28:18.375Z,36.07
2019-03-08T21:30:45.570Z,36.12
2019-03-08T21:33:14.341Z,36.16
2019-03-08T21:35:41.500Z,36.18
2019-03-08T21:38:09.659Z,36.11
2019-03-08T21:40:36.919Z,36.09
2019-03-08T21:43:03.882Z,36.12
2019-03-08T21:45:30.862Z,36.13
2019-03-08T21:47:58.045Z,36.09
2019-03-08T21:50:24.986Z,36.06
2019-03-08T21:52:52.017Z,36.04
2019-03-08T21:55:18.894Z,36.07
2019-03-08T21:57:46.303Z,36.09
2019-03-08T22:00:13.561Z,36.11
2019-03-08T22:02:41.173Z,36.07
2019-03-08T22:05:08.111Z,35.99
2019-03-08T22:07:35.462Z,35.92
2019-03-08T22:10:02.397Z,35.87
2019-03-08T22:12:30.549Z,35.87
2019-03-08T22:14:57.785Z,35.82
2019-03-08T22:17:25.038Z,35.77
2019-03-08T22:19:51.989Z,35.73
2019-03-08T22:22:19.290Z,35.69
2019-03-08T22:24:46.494Z,35.66
2019-03-08T22:27:14.853Z,35.60
2019-03-08T22:29:41.782Z,35.54
2019-03-08T22:32:09.255Z,35.49
2019-03-08T22:34:36.431Z,35.46
2019-03-08T22:37:03.414Z,35.45
2019-03-08T22:39:30.382Z,35.42
2019-03-08T22:41:57.328Z,35.41
2019-03-08T22:44:24.293Z,35.40
2019-03-08T22:46:51.568Z,35.33
2019-03-08T22:49:18.614Z,35.38
2019-03-08T22:51:47.505Z,35.41
2019-03-08T22:54:14.489Z,35.41
2019-03-08T22:56:41.427Z,35.36
2019-03-08T22:59:08.758Z,35.34
2019-03-08T23:01:36.002Z,35.30
2019-03-08T23:04:02.968Z,35.30
2019-03-08T23:06:29.998Z,35.31
2019-03-08T23:08:57.247Z,35.29
2019-03-08T23:11:24.199Z,35.31
2019-03-08T23:13:51.443Z,35.28
2019-03-08T23:16:18.333Z,35.24
2019-03-08T23:18:45.764Z,35.24
2019-03-08T23:21:12.812Z,35.28
2019-03-08T23:23:40.048Z,35.29
2019-03-08T23:26:06.950Z,35.34
2019-03-08T23:28:33.973Z,35.34
2019-03-08T23:31:00.941Z,35.34
2019-03-08T23:33:28.143Z,35.38
2019-03-08T23:35:55.086Z,35.36
2019-03-08T23:38:21.977Z,35.35
2019-03-08T23:40:48.984Z,35.37
2019-03-08T23:43:17.012Z,35.37
2019-03-08T23:45:43.973Z,35.41
2019-03-08T23:48:10.938Z,35.42
2019-03-08T23:50:38.089Z,35.43
2019-03-08T23:53:05.340Z,35.45
2019-03-08T23:55:32.603Z,35.45
2019-03-08T23:57:59.850Z,35.37
